Time;durP1;ratioP1;P1;durP2;ratioP2;P2;SDS_P1;SDS_P2;PMS_P1;PMS_P2;Temp;Humidity;BMP_temperature;BMP_pressure;BME280_temperature;BME280_humidity;BME280_pressure;Samples;Min_cycle;Max_cycle;Signal;HPM_P1;HPM_P2
2022/03/23 00:02:17;;;;;;;1.15;1.05;;;6.80;99.90;;;;;;4966987;28;20027;-64
2022/03/23 00:04:43;;;;;;;0.80;0.80;;;6.90;99.90;;;;;;4952212;29;20031;-64
2022/03/23 00:07:08;;;;;;;1.23;1.15;;;6.60;99.90;;;;;;4952094;29;20024;-64
2022/03/23 00:09:35;;;;;;;0.90;0.90;;;6.70;99.90;;;;;;4951796;29;20035;-63
2022/03/23 00:12:01;;;;;;;1.55;0.52;;;6.70;99.90;;;;;;4952515;29;20039;-64
2022/03/23 00:14:26;;;;;;;3.50;1.85;;;6.70;99.90;;;;;;4952240;29;20035;-64
2022/03/23 00:16:52;;;;;;;6.07;3.13;;;6.70;99.90;;;;;;4952240;29;20031;-64
2022/03/23 00:19:18;;;;;;;2.25;1.55;;;6.80;99.90;;;;;;4951833;29;20380;-64
2022/03/23 00:21:44;;;;;;;1.73;1.60;;;6.50;99.90;;;;;;4952443;29;20031;-64
2022/03/23 00:24:10;;;;;;;2.53;1.70;;;6.00;99.90;;;;;;4935070;29;20027;-64
2022/03/23 00:26:36;;;;;;;0.85;0.85;;;6.20;99.90;;;;;;4952184;29;20043;-64
2022/03/23 00:29:04;;;;;;;0.32;0.32;;;6.30;99.90;;;;;;4934763;29;20102;-64
2022/03/23 00:31:30;;;;;;;1.35;1.30;;;6.30;99.90;;;;;;4935037;29;20023;-63
2022/03/23 00:33:57;;;;;;;4.78;1.65;;;6.30;99.90;;;;;;4952054;29;20023;-64
2022/03/23 00:36:24;;;;;;;1.73;1.60;;;6.40;99.90;;;;;;4952356;29;20035;-64
2022/03/23 00:38:50;;;;;;;1.27;1.17;;;6.40;99.90;;;;;;4951659;29;20074;-64
2022/03/23 00:41:16;;;;;;;0.50;0.50;;;6.50;99.90;;;;;;4952129;29;20027;-64
2022/03/23 00:43:42;;;;;;;2.05;1.95;;;6.50;99.90;;;;;;4952160;29;20036;-63
2022/03/23 00:46:11;;;;;;;3.53;3.13;;;6.50;99.90;;;;;;4952039;29;20023;-63
2022/03/23 00:48:37;;;;;;;3.00;2.63;;;6.50;99.90;;;;;;4934148;29;20028;-62
2022/03/23 00:51:03;;;;;;;0.90;0.90;;;6.50;99.90;;;;;;4951726;29;20039;-64
2022/03/23 00:53:28;;;;;;;0.40;0.40;;;6.50;99.90;;;;;;4951942;29;20042;-63
2022/03/23 00:55:54;;;;;;;0.38;0.38;;;6.40;99.90;;;;;;4951689;29;20035;-64
2022/03/23 00:58:20;;;;;;;0.10;0.10;;;6.40;99.90;;;;;;4934367;29;20069;-64
2022/03/23 01:00:47;;;;;;;0.32;0.32;;;6.30;99.90;;;;;;4934871;29;20066;-64
2022/03/23 01:03:13;;;;;;;3.00;1.65;;;6.30;99.90;;;;;;4951776;29;20490;-64
2022/03/23 01:05:39;;;;;;;0.80;0.80;;;6.20;99.90;;;;;;4951860;29;20110;-64
2022/03/23 01:08:05;;;;;;;1.85;1.75;;;6.20;99.90;;;;;;4934398;29;20033;-64
2022/03/23 01:10:32;;;;;;;0.52;0.52;;;6.20;99.90;;;;;;4951416;29;20055;-64
2022/03/23 01:12:58;;;;;;;0.70;0.70;;;6.30;99.90;;;;;;4934819;29;20470;-64
2022/03/23 01:15:24;;;;;;;0.90;0.90;;;6.20;99.90;;;;;;4951733;29;20031;-64
2022/03/23 01:17:50;;;;;;;0.30;0.30;;;6.20;99.90;;;;;;4951478;28;20454;-64
2022/03/23 01:20:19;;;;;;;1.45;0.75;;;6.10;99.90;;;;;;4952833;28;20031;-64
2022/03/23 01:22:45;;;;;;;1.17;0.95;;;6.10;99.90;;;;;;4938221;29;20031;-64
2022/03/23 01:25:13;;;;;;;1.48;0.95;;;6.10;99.90;;;;;;4955011;29;20035;-64
2022/03/23 01:27:41;;;;;;;3.20;1.05;;;6.10;99.90;;;;;;4937873;29;20055;-64
2022/03/23 01:30:11;;;;;;;1.00;0.88;;;6.00;99.90;;;;;;4954553;29;20035;-64
2022/03/23 01:32:38;;;;;;;3.38;2.55;;;5.80;99.90;;;;;;4938542;29;20019;-64
2022/03/23 01:35:05;;;;;;;0.52;0.52;;;5.70;99.90;;;;;;4955043;29;20027;-64
2022/03/23 01:37:31;;;;;;;2.28;0.70;;;5.60;99.90;;;;;;4937630;29;20070;-64
2022/03/23 01:39:58;;;;;;;1.70;1.60;;;5.70;99.90;;;;;;4937325;29;20061;-64
2022/03/23 01:42:26;;;;;;;0.80;0.80;;;5.60;99.90;;;;;;4937977;29;20551;-64
2022/03/23 01:44:52;;;;;;;4.05;3.60;;;5.70;99.90;;;;;;4954752;29;20058;-64
2022/03/23 01:47:18;;;;;;;0.20;0.20;;;5.60;99.90;;;;;;4954557;29;20464;-64
2022/03/23 01:49:52;;;;;;;2.03;1.85;;;5.70;99.90;;;;;;4954305;29;20031;-63
2022/03/23 01:52:22;;;;;;;0.95;0.95;;;5.70;99.90;;;;;;4978604;23;20510;-61
2022/03/23 01:54:48;;;;;;;0.60;0.60;;;5.60;99.90;;;;;;4974068;28;20027;-61
2022/03/23 01:57:16;;;;;;;5.30;4.53;;;5.60;99.90;;;;;;4973931;28;20041;-62
2022/03/23 01:59:43;;;;;;;1.67;1.58;;;5.40;99.90;;;;;;4956513;28;20044;-62
2022/03/23 02:02:09;;;;;;;0.45;0.45;;;5.40;99.90;;;;;;4973880;28;20037;-61
2022/03/23 02:04:35;;;;;;;1.10;1.10;;;5.50;99.90;;;;;;4964973;28;20364;-61
2022/03/23 02:07:03;;;;;;;8.40;1.80;;;5.40;99.90;;;;;;4950158;28;20023;-62
2022/03/23 02:09:30;;;;;;;0.40;0.40;;;5.40;99.90;;;;;;4973408;28;20027;-61
2022/03/23 02:11:56;;;;;;;2.22;1.52;;;5.40;99.90;;;;;;4973322;28;20027;-61
2022/03/23 02:14:22;;;;;;;1.98;1.83;;;5.40;99.90;;;;;;4956473;28;20466;-61
2022/03/23 02:16:52;;;;;;;0.50;0.50;;;5.30;99.90;;;;;;4954874;28;20042;-61
2022/03/23 02:19:20;;;;;;;10.05;2.00;;;5.30;99.90;;;;;;4953984;29;20074;-62
2022/03/23 02:21:52;;;;;;;0.22;0.22;;;5.30;99.90;;;;;;4921159;29;20046;-62
2022/03/23 02:24:26;;;;;;;2.72;1.80;;;5.20;99.90;;;;;;4964048;28;20031;-62
2022/03/23 02:26:53;;;;;;;1.05;1.00;;;5.20;99.90;;;;;;4956289;28;20027;-61
2022/03/23 02:29:22;;;;;;;1.10;1.10;;;5.20;99.90;;;;;;4973251;28;20390;-61
2022/03/23 02:31:48;;;;;;;0.95;0.95;;;5.10;99.90;;;;;;4955777;28;20531;-61
2022/03/23 02:34:14;;;;;;;0.93;0.85;;;5.10;99.90;;;;;;4973475;28;20031;-62
2022/03/23 02:36:39;;;;;;;0.95;0.95;;;5.10;99.90;;;;;;4973310;28;20027;-61
2022/03/23 02:39:05;;;;;;;0.20;0.20;;;5.10;99.90;;;;;;4971587;28;20163;-62
2022/03/23 02:41:31;;;;;;;0.35;0.35;;;5.10;99.90;;;;;;4961128;28;20027;-62
2022/03/23 02:43:59;;;;;;;3.95;1.40;;;5.00;99.90;;;;;;4952471;29;20082;-61
2022/03/23 02:46:26;;;;;;;0.90;0.90;;;4.80;99.90;;;;;;4936894;29;20027;-61
2022/03/23 02:48:54;;;;;;;2.10;2.00;;;4.70;99.90;;;;;;4936066;29;20400;-62
2022/03/23 02:51:21;;;;;;;10.05;1.45;;;4.70;99.90;;;;;;4953221;29;20122;-62
2022/03/23 03:02:44;;;;;;;0.98;0.98;;;4.50;99.90;;;;;;4953239;29;20031;-61
2022/03/23 03:05:11;;;;;;;1.38;1.17;;;4.50;99.90;;;;;;4953208;29;20042;-61
2022/03/23 03:10:25;;;;;;;0.65;0.65;;;4.30;99.90;;;;;;4938643;29;20027;-61
2022/03/23 03:12:52;;;;;;;0.85;0.85;;;4.40;99.90;;;;;;4936379;29;20083;-61
2022/03/23 03:15:20;;;;;;;4.28;1.80;;;4.40;99.90;;;;;;4944327;28;20046;-61
2022/03/23 03:17:46;;;;;;;0.10;0.10;;;4.40;99.90;;;;;;4955336;28;20177;-62
2022/03/23 03:20:14;;;;;;;0.77;0.77;;;4.50;99.90;;;;;;4972309;28;20046;-62
2022/03/23 03:22:41;;;;;;;1.17;1.08;;;4.50;99.90;;;;;;4972109;28;20039;-61
2022/03/23 03:25:11;;;;;;;0.30;0.30;;;4.50;99.90;;;;;;4972332;28;20042;-61
2022/03/23 03:27:42;;;;;;;1.55;1.45;;;4.50;99.90;;;;;;4955175;28;20494;-62
2022/03/23 03:30:11;;;;;;;2.22;1.85;;;4.40;99.90;;;;;;4971922;28;20507;-62
2022/03/23 03:36:18;;;;;;;3.33;3.00;;;4.30;99.90;;;;;;4971945;28;20391;-61
2022/03/23 03:38:44;;;;;;;0.20;0.20;;;4.30;99.90;;;;;;4954586;28;20029;-61
2022/03/23 03:41:10;;;;;;;0.45;0.45;;;4.30;99.90;;;;;;4971858;28;20031;-61
2022/03/23 03:43:37;;;;;;;0.28;0.28;;;4.40;99.90;;;;;;4971504;28;20027;-61
2022/03/23 03:46:07;;;;;;;0.70;0.70;;;4.40;99.90;;;;;;4954585;28;20030;-61
2022/03/23 03:48:34;;;;;;;2.45;2.25;;;4.20;99.90;;;;;;4970307;28;20117;-62
2022/03/23 03:51:00;;;;;;;0.52;0.52;;;4.00;99.90;;;;;;4954110;28;20549;-62
2022/03/23 03:53:26;;;;;;;0.98;0.98;;;3.90;99.90;;;;;;4971553;28;20057;-61
2022/03/23 03:55:52;;;;;;;0.80;0.80;;;3.80;99.90;;;;;;4971566;28;20027;-61
2022/03/23 03:58:18;;;;;;;1.52;1.50;;;3.70;99.90;;;;;;4971782;28;20110;-62
2022/03/23 04:00:44;;;;;;;0.15;0.15;;;3.80;99.90;;;;;;4971827;28;20179;-62
2022/03/23 04:03:14;;;;;;;0.30;0.30;;;3.80;99.90;;;;;;4972030;28;20031;-61
2022/03/23 04:05:40;;;;;;;0.52;0.52;;;3.80;99.90;;;;;;4971795;28;20066;-61
2022/03/23 04:08:05;;;;;;;0.05;0.05;;;3.70;99.90;;;;;;4954264;28;20422;-61
2022/03/23 04:10:31;;;;;;;0.63;0.63;;;3.80;99.90;;;;;;4971365;28;20034;-62
2022/03/23 04:12:57;;;;;;;0.45;0.45;;;3.80;99.90;;;;;;4971656;28;20037;-62
2022/03/23 04:15:25;;;;;;;0.63;0.63;;;3.90;99.90;;;;;;4944981;29;20032;-62
2022/03/23 04:17:54;;;;;;;0.43;0.43;;;3.80;99.90;;;;;;4952209;29;20491;-62
2022/03/23 04:20:22;;;;;;;0.80;0.80;;;3.90;99.90;;;;;;4935691;29;20487;-62
2022/03/23 04:22:48;;;;;;;0.75;0.75;;;3.80;99.90;;;;;;4935140;29;20076;-62
2022/03/23 04:25:15;;;;;;;2.03;1.17;;;3.80;99.90;;;;;;4935290;29;20492;-62
2022/03/23 04:27:55;;;;;;;0.45;0.45;;;3.70;99.90;;;;;;4934893;29;20114;-62
2022/03/23 04:30:27;;;;;;;5.93;2.70;;;3.70;99.90;;;;;;4935117;29;20070;-62
2022/03/23 04:32:52;;;;;;;0.52;0.50;;;3.60;99.90;;;;;;4920076;29;20697;-62
2022/03/23 04:35:20;;;;;;;0.25;0.25;;;3.70;99.90;;;;;;4952080;29;20039;-62
2022/03/23 04:37:47;;;;;;;0.75;0.75;;;3.70;99.90;;;;;;4934879;29;20392;-62
2022/03/23 04:40:14;;;;;;;0.45;0.45;;;3.70;99.90;;;;;;4934718;29;20442;-62
2022/03/23 04:42:41;;;;;;;0.47;0.47;;;3.70;99.90;;;;;;4951448;28;20469;-63
2022/03/23 04:45:09;;;;;;;0.82;0.80;;;3.70;99.90;;;;;;4969347;28;20034;-63
2022/03/23 04:47:36;;;;;;;0.30;0.30;;;3.70;99.90;;;;;;4989395;28;20022;-62
2022/03/23 04:50:05;;;;;;;11.10;1.13;;;3.80;99.90;;;;;;4987428;28;20037;-63
2022/03/23 04:52:31;;;;;;;1.30;1.27;;;3.80;99.90;;;;;;4966592;28;20030;-62
2022/03/23 04:54:57;;;;;;;6.78;2.47;;;3.80;99.90;;;;;;4964602;28;20061;-62
2022/03/23 04:57:27;;;;;;;0.43;0.43;;;3.50;99.90;;;;;;4994374;28;20478;-62
2022/03/23 04:59:54;;;;;;;0.28;0.28;;;3.40;99.90;;;;;;4993570;28;20045;-62
2022/03/23 05:02:20;;;;;;;1.10;1.10;;;3.40;99.90;;;;;;4993826;28;20030;-62
2022/03/23 05:04:49;;;;;;;1.88;1.77;;;3.40;99.90;;;;;;4993428;28;20035;-62
2022/03/23 05:07:15;;;;;;;2.67;2.45;;;3.40;99.90;;;;;;4994381;28;20037;-62
2022/03/23 05:09:41;;;;;;;0.22;0.22;;;3.30;99.90;;;;;;4992426;28;20034;-62
2022/03/23 05:12:07;;;;;;;0.73;0.73;;;3.30;99.90;;;;;;4994022;28;20026;-62
2022/03/23 05:14:34;;;;;;;1.25;0.50;;;3.30;99.90;;;;;;4957076;28;20039;-62
2022/03/23 05:17:01;;;;;;;0.32;0.32;;;3.30;99.90;;;;;;4953663;29;20418;-62
2022/03/23 05:19:27;;;;;;;2.17;1.55;;;3.10;99.90;;;;;;4953465;29;20031;-62
2022/03/23 05:21:53;;;;;;;4.72;1.90;;;3.00;99.90;;;;;;4955216;29;20054;-63
2022/03/23 05:24:19;;;;;;;1.85;1.70;;;3.10;99.90;;;;;;4953614;29;20066;-63
2022/03/23 05:26:45;;;;;;;0.50;0.50;;;2.90;99.90;;;;;;4954897;29;20051;-62
2022/03/23 05:29:10;;;;;;;30.10;4.63;;;2.80;99.90;;;;;;4954137;29;20031;-62
2022/03/23 05:31:38;;;;;;;1.65;1.55;;;2.80;99.90;;;;;;4954728;29;20438;-63
2022/03/23 05:34:04;;;;;;;1.75;1.63;;;2.80;99.90;;;;;;4954992;29;20555;-63
2022/03/23 05:36:30;;;;;;;0.60;0.60;;;2.80;99.90;;;;;;4954629;29;20055;-63
2022/03/23 05:38:57;;;;;;;1.13;1.02;;;3.00;99.90;;;;;;4954495;29;20041;-63
2022/03/23 05:41:24;;;;;;;1.27;0.68;;;3.10;99.90;;;;;;4953225;29;20027;-63
2022/03/23 05:43:50;;;;;;;0.68;0.68;;;3.20;99.90;;;;;;4964576;28;20376;-62
2022/03/23 05:46:16;;;;;;;0.50;0.47;;;3.30;99.90;;;;;;4957709;28;20037;-62
2022/03/23 05:48:43;;;;;;;0.80;0.77;;;3.20;99.90;;;;;;4982283;28;20054;-63
2022/03/23 05:51:08;;;;;;;14.13;3.30;;;3.20;99.90;;;;;;4983811;28;20033;-63
2022/03/23 05:53:36;;;;;;;1.48;1.15;;;3.20;99.90;;;;;;4984894;28;20105;-62
2022/03/23 05:56:07;;;;;;;0.70;0.70;;;3.20;99.90;;;;;;4967381;28;20035;-63
2022/03/23 05:58:34;;;;;;;2.58;2.38;;;3.10;99.90;;;;;;4934421;28;20034;-62
2022/03/23 06:01:02;;;;;;;7.95;6.20;;;3.20;99.90;;;;;;4991694;28;20118;-62
2022/03/23 06:03:28;;;;;;;16.67;8.48;;;3.20;99.90;;;;;;4993156;28;20026;-61
2022/03/23 06:05:54;;;;;;;9.45;5.00;;;3.40;99.90;;;;;;4970215;28;20038;-62
2022/03/23 06:08:21;;;;;;;6.88;6.22;;;3.70;99.90;;;;;;4973261;28;20030;-62
2022/03/23 06:10:47;;;;;;;5.70;4.07;;;4.10;99.90;;;;;;4955696;28;20027;-62
2022/03/23 06:13:14;;;;;;;4.60;2.35;;;4.20;99.90;;;;;;4955962;28;20031;-62
2022/03/23 06:15:40;;;;;;;1.85;1.75;;;4.10;99.90;;;;;;4973033;28;20065;-63
2022/03/23 06:18:05;;;;;;;4.97;1.92;;;3.90;99.90;;;;;;4955798;28;20038;-62
2022/03/23 06:20:31;;;;;;;0.88;0.80;;;3.90;99.90;;;;;;4971613;28;20070;-63
2022/03/23 06:22:57;;;;;;;0.40;0.35;;;3.90;99.90;;;;;;4981431;28;20046;-63
2022/03/23 06:25:26;;;;;;;8.88;4.03;;;3.90;99.90;;;;;;4992396;28;20030;-63
2022/03/23 06:27:53;;;;;;;1.20;1.17;;;3.90;99.90;;;;;;4992563;28;20033;-63
2022/03/23 06:30:18;;;;;;;3.40;3.10;;;3.90;99.90;;;;;;4992418;28;20394;-63
2022/03/23 06:32:44;;;;;;;2.15;1.27;;;4.00;99.90;;;;;;4991061;28;20030;-63
2022/03/23 06:35:10;;;;;;;0.20;0.20;;;4.00;99.90;;;;;;4991235;28;20121;-63
2022/03/23 06:37:36;;;;;;;0.45;0.45;;;4.00;99.90;;;;;;4992335;28;20157;-63
2022/03/23 06:40:05;;;;;;;0.63;0.63;;;4.10;99.90;;;;;;4990837;28;20045;-63
2022/03/23 06:42:31;;;;;;;2.88;2.65;;;4.10;99.90;;;;;;4990993;28;20042;-63
2022/03/23 06:44:56;;;;;;;8.05;1.98;;;4.30;99.90;;;;;;4980840;28;20049;-63
2022/03/23 06:47:23;;;;;;;2.60;2.30;;;4.30;99.90;;;;;;4973187;28;20776;-63
2022/03/23 06:49:49;;;;;;;0.20;0.20;;;4.40;99.90;;;;;;4972602;28;20116;-63
2022/03/23 06:52:15;;;;;;;0.50;0.50;;;4.50;99.90;;;;;;4972479;28;20647;-63
2022/03/23 06:54:41;;;;;;;1.40;1.30;;;4.60;99.90;;;;;;4970677;28;20031;-63
2022/03/23 06:57:07;;;;;;;2.60;2.40;;;4.70;99.90;;;;;;4971583;28;20110;-63
2022/03/23 06:59:33;;;;;;;15.60;11.63;;;4.80;99.90;;;;;;4971594;28;20133;-63
2022/03/23 07:01:59;;;;;;;31.10;22.90;;;4.90;99.90;;;;;;4972268;28;20081;-63
2022/03/23 07:04:24;;;;;;;2.95;2.00;;;5.00;99.90;;;;;;4972442;28;20030;-63
2022/03/23 07:06:52;;;;;;;0.57;0.57;;;5.10;99.90;;;;;;4972514;28;20387;-62
2022/03/23 07:09:34;;;;;;;13.27;1.42;;;5.20;99.90;;;;;;4972419;28;20398;-62
2022/03/23 07:12:02;;;;;;;1.95;1.02;;;5.40;99.90;;;;;;4967716;28;20058;-62
2022/03/23 07:14:31;;;;;;;1.48;1.38;;;5.40;99.90;;;;;;4951829;28;20040;-61
2022/03/23 07:16:57;;;;;;;2.08;1.55;;;5.60;99.90;;;;;;4955194;28;20065;-61
2022/03/23 07:19:23;;;;;;;0.63;0.63;;;5.70;99.90;;;;;;4954482;28;20058;-61
2022/03/23 07:21:50;;;;;;;0.88;0.88;;;5.70;99.90;;;;;;4949615;28;20062;-61
2022/03/23 07:24:16;;;;;;;3.00;1.98;;;5.80;99.90;;;;;;4971585;28;20482;-61
2022/03/23 07:26:43;;;;;;;3.53;3.28;;;5.90;99.90;;;;;;4951572;29;20042;-60
2022/03/23 07:29:09;;;;;;;1.20;1.10;;;6.10;99.90;;;;;;4952603;29;20082;-61
2022/03/23 07:31:35;;;;;;;0.40;0.40;;;6.20;99.90;;;;;;4951693;29;20027;-59
2022/03/23 07:34:02;;;;;;;0.85;0.85;;;6.30;99.90;;;;;;4953174;28;20062;-60
2022/03/23 07:36:30;;;;;;;6.00;3.13;;;6.40;99.90;;;;;;4969715;28;20038;-61
2022/03/23 07:38:56;;;;;;;0.10;0.10;;;6.50;99.90;;;;;;4969174;28;20039;-61
2022/03/23 07:41:22;;;;;;;5.25;2.25;;;6.50;99.90;;;;;;4954397;28;20481;-61
2022/03/23 07:43:49;;;;;;;0.73;0.73;;;6.60;99.90;;;;;;4972006;28;20027;-61
2022/03/23 07:46:15;;;;;;;0.70;0.70;;;6.70;99.90;;;;;;4969922;28;20105;-61
2022/03/23 07:48:43;;;;;;;0.13;0.13;;;6.80;99.90;;;;;;4954740;28;20130;-61
2022/03/23 07:51:09;;;;;;;1.88;0.82;;;6.90;99.90;;;;;;4971738;28;20026;-61
2022/03/23 07:53:34;;;;;;;0.57;0.43;;;7.00;99.90;;;;;;4971429;28;20031;-61
2022/03/23 07:56:00;;;;;;;6.25;1.13;;;7.10;99.90;;;;;;4938493;28;20615;-61
2022/03/23 07:58:28;;;;;;;0.17;0.17;;;7.10;99.90;;;;;;4951087;28;20035;-61
2022/03/23 08:00:54;;;;;;;0.57;0.57;;;7.20;99.90;;;;;;4971031;28;20426;-60
2022/03/23 08:03:20;;;;;;;0.28;0.28;;;7.30;99.90;;;;;;4971290;28;20487;-62
2022/03/23 08:05:48;;;;;;;0.20;0.20;;;7.40;99.90;;;;;;4971532;28;20041;-62
2022/03/23 08:08:14;;;;;;;0.82;0.50;;;7.50;99.30;;;;;;4953564;28;20167;-62
2022/03/23 08:10:41;;;;;;;0.47;0.47;;;7.60;99.40;;;;;;4970397;28;20399;-62
2022/03/23 08:13:09;;;;;;;0.30;0.30;;;7.70;99.30;;;;;;4970686;28;20506;-62
2022/03/23 08:15:39;;;;;;;0.20;0.20;;;7.80;98.70;;;;;;4970041;28;20031;-62
2022/03/23 08:18:05;;;;;;;2.17;1.35;;;7.90;98.60;;;;;;4969713;28;20513;-61
2022/03/23 08:20:32;;;;;;;3.15;2.67;;;8.00;98.70;;;;;;4969792;28;20058;-60
2022/03/23 08:23:06;;;;;;;0.68;0.68;;;8.00;98.60;;;;;;4968929;28;20057;-62
2022/03/23 08:25:33;;;;;;;5.63;2.65;;;8.10;98.60;;;;;;4969907;28;20034;-63
2022/03/23 08:28:02;;;;;;;3.20;0.85;;;8.20;98.50;;;;;;4969645;28;20035;-63
2022/03/23 08:30:27;;;;;;;1.77;1.30;;;8.30;97.90;;;;;;4974689;28;20493;-62
2022/03/23 08:32:54;;;;;;;0.68;0.68;;;8.30;97.50;;;;;;4974473;28;20039;-61
2022/03/23 08:35:20;;;;;;;1.55;1.42;;;8.50;97.60;;;;;;4975007;28;20118;-61
2022/03/23 08:37:48;;;;;;;2.28;2.10;;;8.60;97.50;;;;;;4956680;28;20047;-61
2022/03/23 08:40:13;;;;;;;1.17;1.15;;;8.70;97.00;;;;;;4957778;28;20030;-61
2022/03/23 08:42:39;;;;;;;1.55;1.45;;;8.70;96.70;;;;;;4971460;28;20050;-61
2022/03/23 08:45:09;;;;;;;6.45;2.78;;;8.90;96.50;;;;;;4973442;28;20038;-60
2022/03/23 08:47:38;;;;;;;24.10;2.72;;;8.90;96.30;;;;;;4973083;28;20077;-60
2022/03/23 08:50:09;;;;;;;2.35;2.15;;;9.10;95.80;;;;;;4974572;28;20026;-62
2022/03/23 08:52:37;;;;;;;2.03;1.90;;;9.20;95.80;;;;;;4974118;28;20808;-62
2022/03/23 08:55:06;;;;;;;1.02;0.75;;;9.30;95.40;;;;;;4971230;28;20071;-62
2022/03/23 08:57:32;;;;;;;0.30;0.20;;;9.40;95.40;;;;;;4955406;28;20037;-62
2022/03/23 08:59:58;;;;;;;11.15;2.33;;;9.50;95.40;;;;;;4972644;28;20037;-62
2022/03/23 09:02:24;;;;;;;0.32;0.32;;;9.70;95.80;;;;;;4973960;28;20165;-63
2022/03/23 09:04:49;;;;;;;1.45;1.35;;;9.80;95.40;;;;;;4974066;28;20566;-63
2022/03/23 09:07:15;;;;;;;3.45;2.92;;;9.90;95.30;;;;;;4974358;28;20031;-64
2022/03/23 09:09:41;;;;;;;6.60;0.93;;;10.00;95.10;;;;;;4954082;29;20118;-64
2022/03/23 09:12:07;;;;;;;0.95;0.75;;;10.10;95.30;;;;;;4960392;28;20103;-63
2022/03/23 09:14:33;;;;;;;0.40;0.40;;;10.30;94.60;;;;;;4972047;28;20081;-63
2022/03/23 09:16:59;;;;;;;2.42;1.58;;;10.30;94.70;;;;;;4972784;28;20479;-63
2022/03/23 09:19:25;;;;;;;1.95;1.38;;;10.40;94.30;;;;;;4973427;28;20055;-63
2022/03/23 09:21:51;;;;;;;6.18;3.13;;;10.40;94.00;;;;;;4973631;28;20035;-63
2022/03/23 09:24:19;;;;;;;2.75;2.55;;;10.60;93.70;;;;;;4972597;28;20478;-64
2022/03/23 09:26:45;;;;;;;1.65;1.55;;;10.80;94.50;;;;;;4974068;28;20066;-63
2022/03/23 09:29:12;;;;;;;3.08;2.65;;;10.90;94.60;;;;;;4973473;28;20038;-64
2022/03/23 09:31:38;;;;;;;1.75;1.20;;;11.00;93.50;;;;;;4974089;28;20027;-63
2022/03/23 09:34:06;;;;;;;1.42;1.30;;;11.10;94.40;;;;;;4973511;28;20126;-65
2022/03/23 09:39:18;;;;;;;3.80;2.35;;;11.50;92.60;;;;;;4973707;28;20041;-63
2022/03/23 09:41:48;;;;;;;3.35;3.05;;;11.50;91.60;;;;;;4953990;28;20425;-64
2022/03/23 09:44:15;;;;;;;1.33;1.20;;;11.60;91.70;;;;;;4970584;28;20109;-64
2022/03/23 09:46:43;;;;;;;2.35;1.65;;;11.70;91.10;;;;;;4954749;28;20050;-64
2022/03/23 09:49:09;;;;;;;0.32;0.32;;;11.90;90.80;;;;;;4973195;28;20770;-65
2022/03/23 09:51:39;;;;;;;1.10;1.05;;;11.90;90.40;;;;;;4954492;28;20051;-63
2022/03/23 09:54:05;;;;;;;0.60;0.60;;;12.00;90.60;;;;;;4973315;28;20027;-65
2022/03/23 09:56:31;;;;;;;1.33;1.25;;;12.00;90.10;;;;;;4947271;28;20399;-64
2022/03/23 09:58:58;;;;;;;18.95;3.72;;;12.00;90.20;;;;;;4971545;28;20041;-62
2022/03/23 10:01:50;;;;;;;0.75;0.75;;;12.40;93.40;;;;;;4973354;28;20070;-63
2022/03/23 10:04:49;;;;;;;1.45;1.08;;;12.50;90.20;;;;;;4894492;29;20053;-63
2022/03/23 10:07:53;;;;;;;22.70;2.13;;;12.50;89.10;;;;;;4894255;29;20048;-62
2022/03/23 10:11:15;;;;;;;3.08;2.67;;;12.90;87.80;;;;;;4894280;29;20048;-62
2022/03/23 10:14:42;;;;;;;1.35;1.30;;;13.00;87.00;;;;;;4894237;29;20512;-62
2022/03/23 10:17:42;;;;;;;0.90;0.85;;;13.20;86.50;;;;;;4893916;29;20374;-62
2022/03/23 10:20:11;;;;;;;1.63;1.52;;;13.20;85.40;;;;;;4893397;29;20065;-62
2022/03/23 10:22:46;;;;;;;4.05;2.45;;;13.60;85.40;;;;;;4893605;29;20124;-62
2022/03/23 10:25:13;;;;;;;2.75;2.50;;;13.80;84.80;;;;;;4879046;29;20622;-62
2022/03/23 10:27:39;;;;;;;2.55;2.30;;;13.90;86.60;;;;;;4893837;29;20032;-62
2022/03/23 10:30:06;;;;;;;1.73;0.80;;;14.20;84.70;;;;;;4894038;29;20182;-63
2022/03/23 10:32:37;;;;;;;0.80;0.80;;;14.20;85.10;;;;;;4878189;29;20032;-63
2022/03/23 10:35:07;;;;;;;;;;;14.40;81.60;;;;;;4894476;29;20040;-62
2022/03/23 10:37:34;;;;;;;1.73;1.58;;;14.60;81.90;;;;;;4893348;29;19922;-63
2022/03/23 10:40:08;;;;;;;1.55;1.45;;;14.80;81.70;;;;;;4893492;29;20044;-63
2022/03/23 10:42:39;;;;;;;14.00;5.68;;;15.00;80.40;;;;;;4964610;28;20053;-63
2022/03/23 10:45:11;;;;;;;5.32;3.22;;;14.90;79.90;;;;;;4951675;29;20456;-64
2022/03/23 10:47:41;;;;;;;1.23;1.17;;;14.70;79.60;;;;;;4965206;28;20038;-63
2022/03/23 10:50:12;;;;;;;2.35;1.67;;;14.80;78.50;;;;;;4953104;28;20054;-63
2022/03/23 10:52:59;;;;;;;2.33;2.13;;;15.10;78.10;;;;;;4963791;28;20078;-63
2022/03/23 10:55:32;;;;;;;1.55;1.45;;;15.50;77.80;;;;;;4972488;28;20107;-63
2022/03/23 10:58:00;;;;;;;4.45;3.03;;;15.60;76.80;;;;;;4969291;28;20039;-63
2022/03/23 11:00:32;;;;;;;1.73;1.58;;;15.50;77.60;;;;;;4972095;28;20066;-63
2022/03/23 11:02:59;;;;;;;1.33;1.17;;;15.60;76.30;;;;;;4967726;28;20549;-63
2022/03/23 11:05:36;;;;;;;4.30;3.45;;;16.00;73.50;;;;;;4971110;28;20031;-63
2022/03/23 11:08:21;;;;;;;2.95;2.35;;;15.90;73.50;;;;;;4970009;28;20061;-63
2022/03/23 11:16:49;;;;;;;1.40;1.25;;;16.60;71.80;;;;;;4971261;28;20065;-63
2022/03/23 11:19:19;;;;;;;1.75;1.58;;;16.80;72.40;;;;;;4972268;28;20034;-62
2022/03/23 11:22:06;;;;;;;4.85;3.20;;;17.20;73.80;;;;;;4970549;28;20057;-63
2022/03/23 11:24:37;;;;;;;2.85;1.58;;;17.10;69.90;;;;;;4969772;28;20035;-63
2022/03/23 11:27:12;;;;;;;2.03;1.85;;;17.40;68.20;;;;;;4971551;28;20062;-63
2022/03/23 11:29:39;;;;;;;4.88;3.55;;;17.60;68.70;;;;;;4971789;28;20426;-63
2022/03/23 11:32:16;;;;;;;3.45;1.73;;;18.10;66.30;;;;;;4969986;28;20034;-63
2022/03/23 11:34:48;;;;;;;1.60;1.50;;;17.80;65.90;;;;;;4971091;28;20173;-63
2022/03/23 11:37:19;;;;;;;2.95;2.75;;;17.90;63.60;;;;;;4954263;28;20070;-63
2022/03/23 11:39:45;;;;;;;3.53;3.10;;;17.80;63.30;;;;;;4970467;28;20380;-63
2022/03/23 11:42:14;;;;;;;8.38;5.07;;;17.80;63.20;;;;;;4970702;28;20089;-61
2022/03/23 11:44:41;;;;;;;5.20;4.00;;;17.60;64.00;;;;;;4970289;28;20033;-62
2022/03/23 11:47:50;;;;;;;3.13;2.25;;;17.70;64.00;;;;;;4969438;28;20110;-62
2022/03/23 11:50:49;;;;;;;2.75;2.28;;;17.80;61.20;;;;;;4955049;28;20031;-62
2022/03/23 11:53:39;;;;;;;14.82;2.42;;;18.60;60.60;;;;;;4970919;28;20035;-62
2022/03/23 11:56:05;;;;;;;5.22;2.92;;;18.90;60.50;;;;;;4952685;28;20034;-62
2022/03/23 11:58:38;;;;;;;3.10;2.83;;;19.10;59.70;;;;;;4953464;28;20035;-63
2022/03/23 12:01:13;;;;;;;2.47;2.28;;;18.30;60.80;;;;;;4971344;28;20035;-63
2022/03/23 12:03:41;;;;;;;2.53;2.30;;;19.50;60.80;;;;;;4967059;28;20034;-64
2022/03/23 12:06:23;;;;;;;5.15;1.58;;;19.30;60.00;;;;;;4971494;28;20491;-63
2022/03/23 12:08:59;;;;;;;12.40;3.78;;;20.20;58.20;;;;;;4969648;28;20606;-63
2022/03/23 12:11:43;;;;;;;2.60;2.40;;;20.30;58.10;;;;;;4969787;28;20042;-63
2022/03/23 12:14:27;;;;;;;3.38;2.40;;;20.50;57.70;;;;;;4968586;28;20090;-63
2022/03/23 12:16:53;;;;;;;4.10;1.95;;;22.00;57.10;;;;;;4969886;28;20035;-64
2022/03/23 12:19:28;;;;;;;1.95;1.67;;;22.00;56.40;;;;;;4971117;28;20041;-63
2022/03/23 12:22:06;;;;;;;2.65;1.92;;;22.50;54.90;;;;;;4971005;28;20039;-63
2022/03/23 12:25:17;;;;;;;5.90;3.72;;;23.20;54.00;;;;;;4971237;28;20050;-64
2022/03/23 12:27:46;;;;;;;3.92;3.25;;;21.90;53.10;;;;;;4969838;28;20114;-63
2022/03/23 12:30:27;;;;;;;4.43;2.47;;;23.70;51.40;;;;;;4953640;28;20031;-63
2022/03/23 12:32:57;;;;;;;;;;;23.80;50.40;;;;;;4965167;28;20681;-62
2022/03/23 12:35:34;;;;;;;3.70;3.05;;;24.00;47.60;;;;;;4951978;29;19911;-63
2022/03/23 12:38:02;;;;;;;2.13;1.65;;;22.90;49.20;;;;;;4968356;28;20035;-62
2022/03/23 12:40:46;;;;;;;2.63;1.73;;;24.70;46.20;;;;;;4969645;28;20023;-62
2022/03/23 12:43:37;;;;;;;1.98;1.65;;;22.30;45.30;;;;;;4969455;28;20022;-62
2022/03/23 12:46:05;;;;;;;3.10;1.05;;;22.80;45.20;;;;;;4970518;28;20073;-63
2022/03/23 12:59:50;;;;;;;5.45;1.42;;;23.20;45.20;;;;;;4970523;28;20034;-62
2022/03/23 13:02:23;;;;;;;7.45;0.90;;;23.10;44.50;;;;;;4953157;28;20026;-63
2022/03/23 13:04:51;;;;;;;1.85;1.38;;;23.60;43.80;;;;;;4967690;28;20042;-63
2022/03/23 13:07:28;;;;;;;1.33;1.20;;;23.40;45.10;;;;;;4970945;28;20161;-63
2022/03/23 13:10:18;;;;;;;3.03;1.73;;;22.90;46.20;;;;;;4970713;28;20034;-63
2022/03/23 13:12:46;;;;;;;2.35;1.98;;;23.70;45.10;;;;;;4970200;28;20368;-63
2022/03/23 13:15:18;;;;;;;1.08;0.98;;;24.70;43.80;;;;;;4955542;28;20042;-61
2022/03/23 13:17:47;;;;;;;1.95;1.85;;;24.10;43.60;;;;;;4973950;28;20026;-62
2022/03/23 13:20:18;;;;;;;1.15;0.82;;;23.90;42.40;;;;;;4968311;28;20027;-63
2022/03/23 13:22:44;;;;;;;2.15;0.90;;;23.40;44.80;;;;;;4973885;28;20047;-64
2022/03/23 13:25:18;;;;;;;3.17;1.40;;;24.70;44.40;;;;;;4953472;29;20075;-58
2022/03/23 13:27:46;;;;;;;2.40;1.52;;;24.70;43.50;;;;;;4973084;28;20394;-56
2022/03/23 13:30:15;;;;;;;1.35;0.70;;;24.60;41.90;;;;;;4973579;28;20031;-58
2022/03/23 13:32:50;;;;;;;3.92;2.65;;;25.50;44.50;;;;;;4953233;29;20046;-63
2022/03/23 13:35:21;;;;;;;2.25;1.70;;;25.10;42.70;;;;;;4954863;29;20545;-63
2022/03/23 13:38:04;;;;;;;0.82;0.82;;;24.10;43.80;;;;;;4967428;28;20027;-63
2022/03/23 13:43:25;;;;;;;2.17;1.33;;;26.10;42.30;;;;;;4953268;29;20045;-63